createdAt,value
2022-11-05T00:01:59.738Z,101392.00
2022-11-05T00:04:59.790Z,101392.97
2022-11-05T00:08:06.660Z,101393.09
2022-11-05T00:10:36.562Z,101393.09
2022-11-05T00:13:22.508Z,101396.84
2022-11-05T00:16:07.602Z,101388.78
2022-11-05T00:18:34.045Z,101384.25
2022-11-05T00:21:00.518Z,101387.91
2022-11-05T00:23:45.694Z,101397.72
2022-11-05T00:26:13.020Z,101386.94
2022-11-05T00:28:43.542Z,101387.06
2022-11-05T00:31:13.132Z,101387.16
2022-11-05T00:33:40.949Z,101395.44
2022-11-05T00:36:10.489Z,101401.91
2022-11-05T00:38:37.233Z,101406.53
2022-11-05T00:41:04.609Z,101406.84
2022-11-05T00:43:49.550Z,101415.91
2022-11-05T00:46:16.047Z,101415.34
2022-11-05T00:49:00.916Z,101418.56
2022-11-05T00:51:27.379Z,101418.94
2022-11-05T00:53:53.927Z,101418.38
2022-11-05T00:56:21.776Z,101411.50
2022-11-05T00:58:49.045Z,101407.25
2022-11-05T01:01:15.722Z,101404.75
2022-11-05T01:03:47.503Z,101412.06
2022-11-05T01:06:17.890Z,101410.34
2022-11-05T01:08:45.753Z,101415.81
2022-11-05T01:11:33.089Z,101421.41
2022-11-05T01:14:00.884Z,101429.59
2022-11-05T01:16:28.386Z,101437.84
2022-11-05T01:18:54.985Z,101435.47
2022-11-05T01:21:21.476Z,101442.97
2022-11-05T01:23:48.019Z,101447.91
2022-11-05T01:26:14.657Z,101451.94
2022-11-05T01:28:41.186Z,101454.28
2022-11-05T01:31:07.780Z,101446.59
2022-11-05T01:33:34.257Z,101454.16
2022-11-05T01:36:00.725Z,101455.41
2022-11-05T01:38:27.185Z,101454.84
2022-11-05T01:40:53.664Z,101459.66
2022-11-05T01:43:22.545Z,101457.16
2022-11-05T01:45:56.695Z,101466.47
2022-11-05T01:48:29.161Z,101470.31
2022-11-05T01:51:13.706Z,101475.09
2022-11-05T01:53:48.540Z,101472.59
2022-11-05T01:56:20.346Z,101474.63
2022-11-05T01:58:59.012Z,101471.34
2022-11-05T02:01:25.730Z,101474.03
2022-11-05T02:03:55.319Z,101471.34
2022-11-05T02:06:21.982Z,101474.03
2022-11-05T02:09:02.996Z,101478.44
2022-11-05T02:11:29.900Z,101472.13
2022-11-05T02:13:56.460Z,101471.44
2022-11-05T02:16:47.506Z,101466.34
2022-11-05T02:19:37.427Z,101465.50
2022-11-05T02:22:23.451Z,101467.31
2022-11-05T02:25:14.791Z,101463.66
2022-11-05T02:27:56.599Z,101461.16
2022-11-05T02:30:40.632Z,101458.66
2022-11-05T02:33:26.732Z,101459.53
2022-11-05T02:36:15.073Z,101456.00
2022-11-05T02:38:44.557Z,101449.84
2022-11-05T02:41:22.734Z,101451.66
2022-11-05T02:44:39.708Z,101449.16
2022-11-05T02:47:29.320Z,101446.59
2022-11-05T02:50:20.489Z,101444.09
2022-11-05T02:53:04.003Z,101450.41
2022-11-05T02:55:38.150Z,101448.69
2022-11-05T02:58:05.968Z,101451.38
2022-11-05T03:00:38.519Z,101449.63
2022-11-05T03:03:08.843Z,101446.19
2022-11-05T03:06:01.224Z,101444.50
2022-11-05T03:08:50.677Z,101445.56
2022-11-05T03:11:23.752Z,101449.97
2022-11-05T03:13:59.507Z,101447.47
2022-11-05T03:16:36.015Z,101441.16
2022-11-05T03:19:41.048Z,101443.84
2022-11-05T03:22:23.171Z,101456.22
2022-11-05T03:24:57.896Z,101455.25
2022-11-05T03:27:30.000Z,101455.09
2022-11-05T03:30:05.445Z,101456.75
2022-11-05T03:32:33.868Z,101457.69
2022-11-05T03:35:13.920Z,101461.16
2022-11-05T03:37:43.325Z,101460.38
2022-11-05T03:40:12.089Z,101470.44
2022-11-05T03:42:42.824Z,101470.50
2022-11-05T03:45:20.671Z,101471.56
2022-11-05T03:47:50.677Z,101472.41
2022-11-05T03:50:28.884Z,101477.97
2022-11-05T03:53:05.041Z,101475.38
2022-11-05T03:55:56.049Z,101477.19
2022-11-05T03:58:23.968Z,101470.09
2022-11-05T04:00:51.028Z,101465.97
2022-11-05T04:03:17.550Z,101462.75
2022-11-05T04:05:44.541Z,101472.91
2022-11-05T04:08:29.323Z,101467.63
2022-11-05T04:11:14.123Z,101469.53
2022-11-05T04:13:40.661Z,101480.34
2022-11-05T04:16:25.933Z,101482.34
2022-11-05T04:18:52.396Z,101493.34
2022-11-05T04:21:37.263Z,101492.66
2022-11-05T04:24:14.866Z,101488.34
2022-11-05T04:26:46.520Z,101483.94
2022-11-05T04:29:31.833Z,101489.31
2022-11-05T04:31:58.289Z,101488.34
2022-11-05T04:34:26.289Z,101498.13
2022-11-05T04:36:53.333Z,101494.59
2022-11-05T04:39:21.226Z,101492.84
2022-11-05T04:41:48.646Z,101495.72
2022-11-05T04:44:16.696Z,101504.72
2022-11-05T04:46:43.517Z,101505.66
2022-11-05T04:49:09.990Z,101502.13
2022-11-05T04:51:36.467Z,101504.91
2022-11-05T04:54:03.538Z,101507.84
2022-11-05T04:56:30.029Z,101512.59
2022-11-05T04:58:56.475Z,101518.22
2022-11-05T05:01:23.877Z,101517.53
2022-11-05T05:03:51.868Z,101513.22
2022-11-05T05:06:19.036Z,101509.81
2022-11-05T05:08:50.189Z,101516.13
2022-11-05T05:11:19.541Z,101518.97
2022-11-05T05:13:46.503Z,101521.91
2022-11-05T05:16:24.472Z,101520.28
2022-11-05T05:18:51.341Z,101519.50
2022-11-05T05:21:37.793Z,101518.72
2022-11-05T05:24:15.251Z,101517.94
2022-11-05T05:26:44.129Z,101518.88
2022-11-05T05:29:11.284Z,101521.66
2022-11-05T05:31:37.952Z,101529.78
2022-11-05T05:34:05.500Z,101530.81
2022-11-05T05:36:33.606Z,101534.53
2022-11-05T05:39:00.048Z,101542.66
2022-11-05T05:41:26.546Z,101532.88
2022-11-05T05:43:52.991Z,101530.28
2022-11-05T05:46:19.782Z,101533.22
2022-11-05T05:48:50.663Z,101535.22
2022-11-05T05:51:18.352Z,101537.03
2022-11-05T05:53:45.156Z,101535.28
2022-11-05T05:56:14.886Z,101535.28
2022-11-05T05:58:41.817Z,101532.69
2022-11-05T06:01:17.229Z,101528.38
2022-11-05T06:03:45.320Z,101525.78
2022-11-05T06:06:13.509Z,101533.97
2022-11-05T06:08:40.395Z,101534.13
2022-11-05T06:11:07.489Z,101530.75
2022-11-05T06:13:34.370Z,101527.38
2022-11-05T06:16:02.557Z,101540.94
2022-11-05T06:18:30.307Z,101548.03
2022-11-05T06:21:02.204Z,101552.34
2022-11-05T06:23:31.572Z,101550.47
2022-11-05T06:26:08.555Z,101546.75
2022-11-05T06:28:35.470Z,101550.38
2022-11-05T06:31:02.153Z,101560.16
2022-11-05T06:33:28.700Z,101569.84
2022-11-05T06:35:58.497Z,101572.34
2022-11-05T06:38:25.002Z,101565.19
2022-11-05T06:40:51.437Z,101567.00
2022-11-05T06:43:17.978Z,101565.25
2022-11-05T06:45:44.485Z,101567.16
2022-11-05T06:48:10.988Z,101563.78
2022-11-05T06:50:37.518Z,101566.53
2022-11-05T06:53:04.584Z,101571.81
2022-11-05T06:55:32.108Z,101573.72
2022-11-05T06:57:58.825Z,101568.34
2022-11-05T07:00:25.775Z,101566.69
2022-11-05T07:02:52.335Z,101580.25
2022-11-05T07:05:19.149Z,101580.34
2022-11-05T07:07:45.772Z,101580.44
2022-11-05T07:10:17.252Z,101580.50
2022-11-05T07:12:44.050Z,101581.38
2022-11-05T07:15:12.345Z,101582.25
2022-11-05T07:17:39.854Z,101582.06
2022-11-05T07:20:08.117Z,101586.41
2022-11-05T07:22:35.231Z,101586.25
2022-11-05T07:25:01.787Z,101594.91
2022-11-05T07:27:28.307Z,101591.97
2022-11-05T07:29:54.746Z,101589.84
2022-11-05T07:32:21.267Z,101592.09
2022-11-05T07:34:52.072Z,101588.22
2022-11-05T07:37:18.544Z,101591.44
2022-11-05T07:39:45.032Z,101594.56
2022-11-05T07:42:13.512Z,101604.69
2022-11-05T07:44:42.099Z,101597.91
2022-11-05T07:47:08.585Z,101598.97
2022-11-05T07:49:35.163Z,101600.00
2022-11-05T07:52:01.688Z,101603.63
2022-11-05T07:54:29.107Z,101607.56
2022-11-05T07:56:55.579Z,101598.97
2022-11-05T07:59:22.050Z,101600.25
2022-11-05T08:01:48.655Z,101603.38
2022-11-05T08:04:16.424Z,101609.09
2022-11-05T08:06:42.898Z,101604.22
2022-11-05T08:09:09.732Z,101604.72
2022-11-05T08:11:36.273Z,101607.03
2022-11-05T08:14:02.789Z,101605.88
2022-11-05T08:16:30.940Z,101606.38
2022-11-05T08:18:57.420Z,101606.97
2022-11-05T08:21:24.084Z,101607.66
2022-11-05T08:23:50.645Z,101598.53
2022-11-05T08:26:19.446Z,101607.19
2022-11-05T08:28:45.961Z,101604.31
2022-11-05T08:31:14.289Z,101603.16
2022-11-05T08:33:40.744Z,101606.47
2022-11-05T08:36:07.496Z,101610.50
2022-11-05T08:38:34.022Z,101611.56
2022-11-05T08:41:00.829Z,101615.22
2022-11-05T08:43:27.440Z,101615.13
2022-11-05T08:45:54.964Z,101609.38
2022-11-05T08:48:21.459Z,101615.31
2022-11-05T08:50:48.731Z,101611.31
2022-11-05T08:53:16.004Z,101611.63
2022-11-05T08:55:44.125Z,101611.19
2022-11-05T08:58:12.869Z,101603.69
2022-11-05T09:00:40.119Z,101615.03
2022-11-05T09:03:08.544Z,101623.72
2022-11-05T09:05:38.077Z,101623.50
2022-11-05T09:08:09.884Z,101617.91
2022-11-05T09:10:36.561Z,101614.88
2022-11-05T09:13:04.193Z,101616.56
2022-11-05T09:15:31.356Z,101615.69
2022-11-05T09:17:57.849Z,101617.59
2022-11-05T09:20:24.533Z,101615.97
2022-11-05T09:22:51.141Z,101612.34
2022-11-05T09:25:22.004Z,101623.22
2022-11-05T09:27:48.469Z,101621.47
2022-11-05T09:30:15.668Z,101625.09
2022-11-05T09:32:42.175Z,101619.84
2022-11-05T09:35:12.910Z,101620.88
2022-11-05T09:37:39.400Z,101628.56
2022-11-05T09:40:06.819Z,101628.59
2022-11-05T09:42:40.432Z,101632.31
2022-11-05T09:45:18.556Z,101630.84
2022-11-05T09:48:00.581Z,101635.53
2022-11-05T09:50:40.432Z,101627.69
2022-11-05T09:53:07.693Z,101642.69
2022-11-05T09:55:39.035Z,101640.97
2022-11-05T09:58:32.431Z,101640.09
2022-11-05T10:00:59.253Z,101643.44
2022-11-05T10:03:29.346Z,101642.97
2022-11-05T10:06:07.215Z,101639.28
2022-11-05T10:08:41.549Z,101649.44
2022-11-05T10:11:18.869Z,101653.50
2022-11-05T10:13:56.856Z,101653.13
2022-11-05T10:16:35.088Z,101645.38
2022-11-05T10:19:06.556Z,101650.19
2022-11-05T10:22:04.174Z,101651.16
2022-11-05T10:24:23.980Z,101655.31
2022-11-05T10:26:54.499Z,101656.91
2022-11-05T10:29:29.164Z,101663.94
2022-11-05T10:31:58.285Z,101667.22
2022-11-05T10:34:33.615Z,101663.75
2022-11-05T10:37:00.252Z,101662.78
2022-11-05T10:39:27.816Z,101661.66
2022-11-05T10:41:54.330Z,101659.44
2022-11-05T10:44:43.926Z,101657.22
2022-11-05T10:47:32.182Z,101657.34
2022-11-05T10:50:01.067Z,101658.72
2022-11-05T10:52:38.210Z,101657.00
2022-11-05T10:55:17.227Z,101663.03
2022-11-05T10:57:43.757Z,101665.75
2022-11-05T11:00:16.561Z,101667.84
2022-11-05T11:02:58.604Z,101658.50
2022-11-05T11:05:35.466Z,101654.66
2022-11-05T11:08:10.972Z,101657.03
2022-11-05T11:10:47.884Z,101655.19
2022-11-05T11:13:21.092Z,101656.78
2022-11-05T11:15:52.785Z,101656.91
2022-11-05T11:18:40.342Z,101661.22
2022-11-05T11:21:12.641Z,101661.72
2022-11-05T11:23:40.991Z,101656.94
2022-11-05T11:26:11.096Z,101659.16
2022-11-05T11:28:43.163Z,101655.22
2022-11-05T11:31:13.629Z,101657.19
2022-11-05T11:33:44.597Z,101648.94
2022-11-05T11:36:12.670Z,101646.84
2022-11-05T11:38:40.060Z,101644.00
2022-11-05T11:41:31.180Z,101657.31
2022-11-05T11:44:03.834Z,101648.19
2022-11-05T11:46:34.080Z,101654.34
2022-11-05T11:49:01.023Z,101649.66
2022-11-05T11:51:49.663Z,101640.69
2022-11-05T11:54:28.627Z,101648.31
2022-11-05T11:56:55.868Z,101650.16
2022-11-05T11:59:46.834Z,101649.31
2022-11-05T12:02:28.024Z,101646.59
2022-11-05T12:05:24.754Z,101654.47
2022-11-05T12:07:58.022Z,101656.06
2022-11-05T12:10:43.636Z,101657.53
2022-11-05T12:13:18.992Z,101656.44
2022-11-05T12:16:05.931Z,101647.31
2022-11-05T12:18:40.433Z,101640.66
2022-11-05T12:21:52.564Z,101635.63
2022-11-05T12:25:06.666Z,101624.28
2022-11-05T12:27:56.197Z,101634.41
2022-11-05T12:30:23.212Z,101643.38
2022-11-05T12:33:25.880Z,101642.41
2022-11-05T12:36:00.304Z,101649.19
2022-11-05T12:38:45.743Z,101641.31
2022-11-05T12:41:19.752Z,101642.03
2022-11-05T12:43:48.945Z,101634.53
2022-11-05T12:46:37.186Z,101628.84
2022-11-05T12:49:03.635Z,101625.50
2022-11-05T12:51:51.160Z,101615.13
2022-11-05T12:54:38.924Z,101620.91
2022-11-05T12:57:11.412Z,101605.44
2022-11-05T12:59:55.206Z,101607.41
2022-11-05T13:02:33.106Z,101607.88
2022-11-05T13:05:05.369Z,101598.47
2022-11-05T13:07:36.492Z,101595.03
2022-11-05T13:10:23.040Z,101594.19
2022-11-05T13:12:57.971Z,101599.34
2022-11-05T13:15:30.542Z,101595.63
2022-11-05T13:18:00.110Z,101592.19
2022-11-05T13:20:31.592Z,101578.91
2022-11-05T13:23:13.369Z,101571.88
2022-11-05T13:25:49.243Z,101575.84
2022-11-05T13:28:34.496Z,101580.78
2022-11-05T13:31:03.923Z,101578.31
2022-11-05T13:33:36.403Z,101568.34
2022-11-05T13:36:39.518Z,101564.75
2022-11-05T13:39:23.661Z,101569.47
2022-11-05T13:42:34.624Z,101560.00
2022-11-05T13:45:10.919Z,101555.94
2022-11-05T13:47:58.899Z,101560.03
2022-11-05T13:51:06.772Z,101550.31
2022-11-05T13:54:17.906Z,101552.28
2022-11-05T13:56:56.439Z,101550.56
2022-11-05T13:59:32.972Z,101542.44
2022-11-05T14:02:11.693Z,101542.31
2022-11-05T14:04:44.556Z,101540.47
2022-11-05T14:07:25.584Z,101541.31
2022-11-05T14:09:55.956Z,101551.44
2022-11-05T14:12:34.128Z,101549.06
2022-11-05T14:15:19.689Z,101544.66
2022-11-05T14:17:58.080Z,101544.66
2022-11-05T14:20:30.613Z,101542.94
2022-11-05T14:23:18.951Z,101556.00
2022-11-05T14:25:55.887Z,101549.97
2022-11-05T14:28:41.023Z,101551.09
2022-11-05T14:31:19.734Z,101553.81
2022-11-05T14:34:15.557Z,101552.94
2022-11-05T14:37:02.446Z,101551.09
2022-11-05T14:39:31.392Z,101551.09
2022-11-05T14:42:02.303Z,101545.69
2022-11-05T14:44:30.716Z,101541.97
2022-11-05T14:47:07.827Z,101544.81
2022-11-05T14:49:45.539Z,101547.66
2022-11-05T14:52:16.799Z,101538.66
2022-11-05T14:54:49.000Z,101538.06
2022-11-05T14:57:41.871Z,101539.56
2022-11-05T15:00:29.924Z,101538.94
2022-11-05T15:03:05.267Z,101538.34
2022-11-05T15:05:33.240Z,101542.16
2022-11-05T15:08:19.993Z,101537.00
2022-11-05T15:10:48.334Z,101541.81
2022-11-05T15:13:31.500Z,101537.50
2022-11-05T15:15:59.155Z,101543.91
2022-11-05T15:18:33.279Z,101545.03
2022-11-05T15:21:03.047Z,101545.28
2022-11-05T15:23:40.855Z,101545.53
2022-11-05T15:26:39.901Z,101543.34
2022-11-05T15:29:17.436Z,101537.19
2022-11-05T15:31:45.342Z,101543.59
2022-11-05T15:34:32.347Z,101540.38
2022-11-05T15:37:10.946Z,101538.66
2022-11-05T15:39:43.588Z,101534.44
2022-11-05T15:42:22.245Z,101530.13
2022-11-05T15:44:51.172Z,101534.66
2022-11-05T15:47:30.145Z,101528.50
2022-11-05T15:50:14.998Z,101528.63
2022-11-05T15:52:54.779Z,101527.78
2022-11-05T15:55:24.607Z,101531.47
2022-11-05T15:57:58.222Z,101530.88
2022-11-05T16:00:30.435Z,101522.00
2022-11-05T16:03:01.390Z,101530.13
2022-11-05T16:05:33.359Z,101535.91
2022-11-05T16:08:01.673Z,101538.88
2022-11-05T16:10:36.617Z,101531.97
2022-11-05T16:13:32.105Z,101531.22
2022-11-05T16:16:02.177Z,101532.22
2022-11-05T16:18:35.393Z,101527.91
2022-11-05T16:21:06.721Z,101523.47
2022-11-05T16:23:59.492Z,101523.00
2022-11-05T16:26:55.721Z,101525.56
2022-11-05T16:29:19.005Z,101521.41
2022-11-05T16:31:51.129Z,101519.78
2022-11-05T16:34:28.616Z,101510.06
2022-11-05T16:36:57.763Z,101519.19
2022-11-05T16:39:24.789Z,101521.16
2022-11-05T16:41:51.401Z,101514.13
2022-11-05T16:44:22.114Z,101514.25
2022-11-05T16:46:49.882Z,101515.13
2022-11-05T16:49:17.603Z,101517.19
2022-11-05T16:51:44.576Z,101521.88
2022-11-05T16:54:15.449Z,101518.53
2022-11-05T16:56:43.760Z,101518.78
2022-11-05T16:59:12.796Z,101522.72
2022-11-05T17:01:42.351Z,101509.31
2022-11-05T17:04:26.798Z,101508.56
2022-11-05T17:06:53.306Z,101512.13
2022-11-05T17:09:19.939Z,101510.31
2022-11-05T17:11:46.409Z,101519.41
2022-11-05T17:14:17.185Z,101515.91
2022-11-05T17:16:43.685Z,101516.91
2022-11-05T17:19:14.449Z,101505.22
2022-11-05T17:21:41.512Z,101520.59
2022-11-05T17:24:13.731Z,101515.28
2022-11-05T17:26:40.196Z,101521.56
2022-11-05T17:29:06.639Z,101524.28
2022-11-05T17:31:33.331Z,101524.38
2022-11-05T17:34:00.257Z,101521.81
2022-11-05T17:36:28.187Z,101529.91
2022-11-05T17:38:54.682Z,101516.50
2022-11-05T17:41:23.074Z,101527.34
2022-11-05T17:43:54.359Z,101527.44
2022-11-05T17:46:22.133Z,101513.81
2022-11-05T17:48:48.717Z,101511.09
2022-11-05T17:51:18.372Z,101519.09
2022-11-05T17:53:45.999Z,101520.81
2022-11-05T17:56:18.371Z,101519.09
2022-11-05T17:58:48.816Z,101519.22
2022-11-05T18:01:27.701Z,101524.97
2022-11-05T18:03:54.309Z,101524.97
2022-11-05T18:06:21.925Z,101521.31
2022-11-05T18:08:48.480Z,101528.44
2022-11-05T18:11:15.097Z,101535.69
2022-11-05T18:13:41.772Z,101535.44
2022-11-05T18:16:09.060Z,101539.75
2022-11-05T18:18:35.633Z,101536.94
2022-11-05T18:21:02.127Z,101542.22
2022-11-05T18:23:28.661Z,101545.78
2022-11-05T18:25:56.427Z,101545.66
2022-11-05T18:28:22.973Z,101541.25
2022-11-05T18:30:49.716Z,101535.09
2022-11-05T18:33:16.189Z,101536.19
2022-11-05T18:35:46.333Z,101532.75
2022-11-05T18:38:12.970Z,101528.19
2022-11-05T18:40:39.771Z,101532.63
2022-11-05T18:43:06.345Z,101532.38
2022-11-05T18:45:34.620Z,101522.53
2022-11-05T18:48:02.091Z,101525.25
2022-11-05T18:50:29.333Z,101519.97
2022-11-05T18:52:56.147Z,101526.47
2022-11-05T18:55:23.164Z,101524.75
2022-11-05T18:57:49.652Z,101524.88
2022-11-05T19:00:16.737Z,101520.56
2022-11-05T19:02:43.414Z,101527.81
2022-11-05T19:07:57.066Z,101529.88
2022-11-05T19:10:23.692Z,101521.78
2022-11-05T19:12:50.268Z,101509.25
2022-11-05T19:15:17.985Z,101503.09
2022-11-05T19:17:44.943Z,101505.78
2022-11-05T19:20:11.702Z,101502.22
2022-11-05T19:22:38.221Z,101502.13
2022-11-05T19:25:07.276Z,101512.31
2022-11-05T19:27:35.748Z,101505.53
2022-11-05T19:30:02.491Z,101504.03
2022-11-05T19:32:29.359Z,101500.59
2022-11-05T19:34:57.592Z,101505.25
2022-11-05T19:37:24.114Z,101501.81
2022-11-05T19:39:50.783Z,101500.84
2022-11-05T19:42:17.324Z,101508.94
2022-11-05T19:44:44.914Z,101507.22
2022-11-05T19:47:11.460Z,101505.72
2022-11-05T19:49:37.920Z,101497.63
2022-11-05T19:52:04.604Z,101497.81
2022-11-05T19:54:35.901Z,101498.06
2022-11-05T19:57:02.388Z,101494.63
2022-11-05T19:59:28.837Z,101494.75
2022-11-05T20:01:55.365Z,101493.25
2022-11-05T20:04:25.845Z,101485.50
2022-11-05T20:06:52.372Z,101467.56
2022-11-05T20:09:22.045Z,101466.94
2022-11-05T20:11:54.962Z,101480.69
2022-11-05T20:14:26.032Z,101471.09
2022-11-05T20:16:55.104Z,101475.81
2022-11-05T20:19:22.988Z,101467.97
2022-11-05T20:21:50.605Z,101478.00
2022-11-05T20:24:25.518Z,101471.97
2022-11-05T20:26:58.906Z,101479.34
2022-11-05T20:29:33.703Z,101472.34
2022-11-05T20:32:29.355Z,101470.72
2022-11-05T20:35:33.427Z,101476.34
2022-11-05T20:38:12.932Z,101489.00
2022-11-05T20:41:18.243Z,101481.97
2022-11-05T20:43:58.752Z,101482.09
2022-11-05T20:46:28.701Z,101471.94
2022-11-05T20:48:55.870Z,101476.25
2022-11-05T20:51:24.427Z,101476.00
2022-11-05T20:53:57.709Z,101485.09
2022-11-05T20:56:28.122Z,101484.97
2022-11-05T20:58:57.969Z,101482.03
2022-11-05T21:01:26.081Z,101483.75
2022-11-05T21:03:53.747Z,101480.09
2022-11-05T21:06:22.186Z,101482.78
2022-11-05T21:08:50.468Z,101467.22
2022-11-05T21:11:18.639Z,101467.22
2022-11-05T21:13:45.815Z,101473.34
2022-11-05T21:16:18.193Z,101479.63
2022-11-05T21:18:46.064Z,101481.22
2022-11-05T21:21:19.058Z,101487.28
2022-11-05T21:23:45.628Z,101478.94
2022-11-05T21:26:15.211Z,101493.22
2022-11-05T21:28:42.486Z,101484.97
2022-11-05T21:31:09.593Z,101495.56
2022-11-05T21:33:36.649Z,101501.69
2022-11-05T21:36:12.025Z,101489.06
2022-11-05T21:38:39.108Z,101483.41
2022-11-05T21:41:06.352Z,101495.59
2022-11-05T21:43:33.483Z,101486.88
2022-11-05T21:46:01.839Z,101482.56
2022-11-05T21:48:28.635Z,101484.50
2022-11-05T21:51:13.938Z,101484.63
2022-11-05T21:53:59.336Z,101475.78
2022-11-05T21:56:47.159Z,101466.94
2022-11-05T21:59:35.733Z,101456.13
2022-11-05T22:02:03.177Z,101467.06
2022-11-05T22:04:36.764Z,101462.63
2022-11-05T22:07:04.411Z,101456.59
2022-11-05T22:09:31.203Z,101451.41
2022-11-05T22:11:58.846Z,101454.97
2022-11-05T22:14:27.243Z,101448.69
2022-11-05T22:16:54.214Z,101455.19
2022-11-05T22:19:21.859Z,101444.63
2022-11-05T22:21:48.551Z,101440.19
2022-11-05T22:24:17.831Z,101435.91
2022-11-05T22:26:44.844Z,101439.94
2022-11-05T22:29:12.020Z,101443.72
2022-11-05T22:31:39.192Z,101437.47
2022-11-05T22:34:06.281Z,101438.31
2022-11-05T22:36:34.007Z,101422.97
2022-11-05T22:39:00.698Z,101428.38
2022-11-05T22:41:27.473Z,101425.78
2022-11-05T22:43:54.033Z,101428.63
2022-11-05T22:46:22.927Z,101434.00
2022-11-05T22:48:50.353Z,101425.78
2022-11-05T22:51:20.034Z,101430.34
2022-11-05T22:53:46.891Z,101432.06
2022-11-05T22:56:19.004Z,101429.47
2022-11-05T22:58:45.928Z,101427.75
2022-11-05T23:01:13.217Z,101424.31
2022-11-05T23:03:41.108Z,101427.00
2022-11-05T23:06:32.168Z,101426.25
2022-11-05T23:09:17.916Z,101423.69
2022-11-05T23:11:48.084Z,101416.78
2022-11-05T23:14:19.186Z,101413.09
2022-11-05T23:17:04.550Z,101412.38
2022-11-05T23:19:49.465Z,101399.09
2022-11-05T23:22:37.952Z,101399.22
2022-11-05T23:25:08.607Z,101400.31
2022-11-05T23:27:37.199Z,101393.31
2022-11-05T23:30:11.028Z,101390.72
2022-11-05T23:32:38.457Z,101387.16
2022-11-05T23:35:09.121Z,101381.00
2022-11-05T23:37:53.944Z,101378.44
2022-11-05T23:40:25.989Z,101376.59
2022-11-05T23:43:10.848Z,101374.00
2022-11-05T23:46:01.156Z,101365.91
2022-11-05T23:48:37.729Z,101374.75
2022-11-05T23:51:10.748Z,101378.44
2022-11-05T23:53:40.451Z,101375.00
2022-11-05T23:56:13.879Z,101378.78
2022-11-05T23:58:41.821Z,101379.75
